Terminal Aerodrome Forecast
Issued by NWS Sioux Falls, SD

Home | Current Version | Previous Version | Text Only | Print | Product List | Glossary On
Versions: 1 2 3 4 5 6 7 8 9 10 11 12 13 14 15 16 17 18
536
FTUS43 KFSD 141510 AAA
TAFHON
TAF AMD
KHON 141510Z 1415/1512 21006KT P6SM BKN008
      TEMPO 1415/1416 BKN012
     FM141800 26009KT 1 1/2SM -SN BKN020
     FM142000 31012KT 2SM -SN OVC015
     FM142200 33017G26KT P6SM BKN040
     FM150300 34016G24KT P6SM SCT045=

USA.gov is the U.S. government's official web portal to all federal, state and local government web resources and services.